ADDS METAR Data INFO
IDs: Format: Raw Decoded Include TAF

Data at: 1513 UTC 16 Jan 2018

METAR for:KHAO (Hamilton/Butler Cnty, OH, US)
Text:KHAO 161453Z AUTO 28009KT 10SM CLR M14/M19 A3055 RMK AO2 SLP358 T11441189 51014
Temperature:-14.4°C ( 6°F)
Dewpoint:-18.9°C ( -2°F) [RH = 69%]
Pressure (altimeter):30.55 inches Hg (1034.6 mb) [Sea level pressure: 1035.8 mb]
Winds:from the W (280 degrees) at 10 MPH (9 knots; 4.6 m/s)
Visibility:10 or more sm (16+ km)
Ceiling:at least 12,000 feet AGL
Clouds:sky clear below 12,000 feet AGL
QC Flag:automated observation with no human augmentation